Weather at Guglielmo Zamboni

Public forecast

Using degrees Celsius for public forecast. Weather courtesy of forecast.io.

Closest aviation weather report (METAR) to Guglielmo Zamboni

Closest report is Bologna Guglielmo Marconi Airport, 11.4 nm (21.2 km) WNW. Retrieved 2020/09/28 13:20 UTC (36 minutes ago):

LIPE 281320Z 36006KT 320V020 9999 SCT050 19/07 Q1008

Closest aviation forecast (TAF) to Guglielmo Zamboni

Closest forecast is Bologna Guglielmo Marconi Airport, 11.4 nm (21.2 km) WNW. Retrieved 2020/09/28 12:22 UTC (2 hours ago):

TAF LIPE 281100Z 2812/2912 VRB05KT CAVOK TEMPO 2902/2907 3500 BR